sensor_id;sensor_type;location;lat;lon;timestamp;P1;durP1;ratioP1;P2;durP2;ratioP2
29814;SDS011;16708;50.426;7.664;2023-05-07T00:04:00;4.30;;;3.30;;
29814;SDS011;16708;50.426;7.664;2023-05-07T00:08:55;5.00;;;3.30;;
29814;SDS011;16708;50.426;7.664;2023-05-07T00:13:48;6.10;;;3.40;;
29814;SDS011;16708;50.426;7.664;2023-05-07T00:18:42;5.60;;;3.10;;
29814;SDS011;16708;50.426;7.664;2023-05-07T00:23:36;5.00;;;3.10;;
29814;SDS011;16708;50.426;7.664;2023-05-07T00:28:31;5.50;;;3.00;;
29814;SDS011;16708;50.426;7.664;2023-05-07T00:33:25;7.00;;;3.60;;
29814;SDS011;16708;50.426;7.664;2023-05-07T00:38:20;6.40;;;3.40;;
29814;SDS011;16708;50.426;7.664;2023-05-07T00:43:14;4.90;;;2.90;;
29814;SDS011;16708;50.426;7.664;2023-05-07T00:48:09;4.70;;;3.10;;
29814;SDS011;16708;50.426;7.664;2023-05-07T00:53:03;7.50;;;4.50;;
29814;SDS011;16708;50.426;7.664;2023-05-07T00:57:57;4.80;;;3.00;;
29814;SDS011;16708;50.426;7.664;2023-05-07T01:02:52;5.60;;;2.90;;
29814;SDS011;16708;50.426;7.664;2023-05-07T01:07:46;8.00;;;3.60;;
29814;SDS011;16708;50.426;7.664;2023-05-07T01:12:40;11.50;;;5.90;;
29814;SDS011;16708;50.426;7.664;2023-05-07T01:17:35;10.60;;;5.70;;
29814;SDS011;16708;50.426;7.664;2023-05-07T01:22:28;7.80;;;5.20;;
29814;SDS011;16708;50.426;7.664;2023-05-07T01:27:23;8.20;;;5.30;;
29814;SDS011;16708;50.426;7.664;2023-05-07T01:32:17;11.30;;;6.20;;
29814;SDS011;16708;50.426;7.664;2023-05-07T01:37:12;9.00;;;5.80;;
29814;SDS011;16708;50.426;7.664;2023-05-07T01:42:07;9.30;;;5.80;;
29814;SDS011;16708;50.426;7.664;2023-05-07T01:47:01;9.60;;;6.10;;
29814;SDS011;16708;50.426;7.664;2023-05-07T01:51:55;11.10;;;6.20;;
29814;SDS011;16708;50.426;7.664;2023-05-07T01:56:50;10.30;;;6.20;;
29814;SDS011;16708;50.426;7.664;2023-05-07T02:01:44;12.10;;;6.40;;
29814;SDS011;16708;50.426;7.664;2023-05-07T02:06:39;11.00;;;6.20;;
29814;SDS011;16708;50.426;7.664;2023-05-07T02:11:33;9.30;;;5.60;;
29814;SDS011;16708;50.426;7.664;2023-05-07T02:16:28;9.40;;;4.50;;
29814;SDS011;16708;50.426;7.664;2023-05-07T02:21:22;6.70;;;3.90;;
29814;SDS011;16708;50.426;7.664;2023-05-07T02:26:16;5.80;;;3.50;;
29814;SDS011;16708;50.426;7.664;2023-05-07T02:31:11;7.80;;;3.80;;
29814;SDS011;16708;50.426;7.664;2023-05-07T02:36:06;6.90;;;3.80;;
29814;SDS011;16708;50.426;7.664;2023-05-07T02:41:00;12.20;;;3.90;;
29814;SDS011;16708;50.426;7.664;2023-05-07T02:45:55;7.80;;;4.10;;
29814;SDS011;16708;50.426;7.664;2023-05-07T02:50:49;6.90;;;4.50;;
29814;SDS011;16708;50.426;7.664;2023-05-07T03:00:36;9.80;;;4.30;;
29814;SDS011;16708;50.426;7.664;2023-05-07T03:05:30;6.00;;;3.80;;
29814;SDS011;16708;50.426;7.664;2023-05-07T03:10:25;6.30;;;3.70;;
29814;SDS011;16708;50.426;7.664;2023-05-07T03:15:18;7.00;;;3.60;;
29814;SDS011;16708;50.426;7.664;2023-05-07T03:20:13;6.70;;;3.60;;
29814;SDS011;16708;50.426;7.664;2023-05-07T03:25:07;10.40;;;4.70;;
29814;SDS011;16708;50.426;7.664;2023-05-07T03:30:02;6.20;;;4.30;;
29814;SDS011;16708;50.426;7.664;2023-05-07T03:34:56;7.40;;;3.80;;
29814;SDS011;16708;50.426;7.664;2023-05-07T03:39:50;7.60;;;4.00;;
29814;SDS011;16708;50.426;7.664;2023-05-07T03:44:45;6.50;;;4.10;;
29814;SDS011;16708;50.426;7.664;2023-05-07T03:49:38;7.60;;;4.20;;
29814;SDS011;16708;50.426;7.664;2023-05-07T03:54:32;7.20;;;4.40;;
29814;SDS011;16708;50.426;7.664;2023-05-07T03:59:27;9.40;;;4.90;;
29814;SDS011;16708;50.426;7.664;2023-05-07T04:04:21;8.10;;;5.00;;
29814;SDS011;16708;50.426;7.664;2023-05-07T04:09:14;13.20;;;6.70;;
29814;SDS011;16708;50.426;7.664;2023-05-07T04:14:09;12.90;;;7.40;;
29814;SDS011;16708;50.426;7.664;2023-05-07T04:19:03;9.00;;;5.20;;
29814;SDS011;16708;50.426;7.664;2023-05-07T04:23:58;9.10;;;5.80;;
29814;SDS011;16708;50.426;7.664;2023-05-07T04:28:52;8.70;;;5.30;;
29814;SDS011;16708;50.426;7.664;2023-05-07T04:33:44;11.00;;;6.90;;
29814;SDS011;16708;50.426;7.664;2023-05-07T04:38:37;11.60;;;7.20;;
29814;SDS011;16708;50.426;7.664;2023-05-07T04:43:31;12.20;;;7.60;;
29814;SDS011;16708;50.426;7.664;2023-05-07T04:48:26;11.20;;;7.50;;
29814;SDS011;16708;50.426;7.664;2023-05-07T04:53:20;15.20;;;8.60;;
29814;SDS011;16708;50.426;7.664;2023-05-07T04:58:15;14.40;;;8.70;;
29814;SDS011;16708;50.426;7.664;2023-05-07T05:03:09;11.10;;;7.50;;
29814;SDS011;16708;50.426;7.664;2023-05-07T05:08:03;8.60;;;4.90;;
29814;SDS011;16708;50.426;7.664;2023-05-07T05:12:58;9.40;;;6.20;;
29814;SDS011;16708;50.426;7.664;2023-05-07T05:17:52;15.40;;;9.40;;
29814;SDS011;16708;50.426;7.664;2023-05-07T05:22:46;14.20;;;9.10;;
29814;SDS011;16708;50.426;7.664;2023-05-07T05:27:40;15.10;;;8.90;;
29814;SDS011;16708;50.426;7.664;2023-05-07T05:32:35;17.40;;;10.70;;
29814;SDS011;16708;50.426;7.664;2023-05-07T05:37:31;16.40;;;10.10;;
29814;SDS011;16708;50.426;7.664;2023-05-07T05:42:24;14.60;;;9.40;;
29814;SDS011;16708;50.426;7.664;2023-05-07T05:47:18;13.60;;;9.00;;
29814;SDS011;16708;50.426;7.664;2023-05-07T05:52:13;14.60;;;9.50;;
29814;SDS011;16708;50.426;7.664;2023-05-07T05:57:07;13.70;;;7.20;;
29814;SDS011;16708;50.426;7.664;2023-05-07T06:02:02;7.00;;;5.00;;
29814;SDS011;16708;50.426;7.664;2023-05-07T06:06:57;8.70;;;5.30;;
29814;SDS011;16708;50.426;7.664;2023-05-07T06:11:51;8.60;;;5.70;;
29814;SDS011;16708;50.426;7.664;2023-05-07T06:16:44;10.40;;;6.80;;
29814;SDS011;16708;50.426;7.664;2023-05-07T06:21:38;10.80;;;6.90;;
29814;SDS011;16708;50.426;7.664;2023-05-07T06:26:33;9.10;;;6.70;;
29814;SDS011;16708;50.426;7.664;2023-05-07T06:31:27;10.70;;;6.10;;
29814;SDS011;16708;50.426;7.664;2023-05-07T06:36:22;7.50;;;4.90;;
29814;SDS011;16708;50.426;7.664;2023-05-07T06:41:16;6.70;;;4.10;;
29814;SDS011;16708;50.426;7.664;2023-05-07T06:46:11;6.50;;;3.70;;
29814;SDS011;16708;50.426;7.664;2023-05-07T06:51:06;5.40;;;3.90;;
29814;SDS011;16708;50.426;7.664;2023-05-07T06:56:00;4.50;;;3.10;;
29814;SDS011;16708;50.426;7.664;2023-05-07T07:00:55;4.90;;;2.50;;
29814;SDS011;16708;50.426;7.664;2023-05-07T07:05:50;5.50;;;2.40;;
29814;SDS011;16708;50.426;7.664;2023-05-07T07:10:45;3.80;;;2.00;;
29814;SDS011;16708;50.426;7.664;2023-05-07T07:15:39;4.10;;;1.90;;
29814;SDS011;16708;50.426;7.664;2023-05-07T07:20:34;4.00;;;1.60;;
29814;SDS011;16708;50.426;7.664;2023-05-07T07:25:29;2.70;;;1.70;;
29814;SDS011;16708;50.426;7.664;2023-05-07T07:30:23;3.00;;;1.70;;
29814;SDS011;16708;50.426;7.664;2023-05-07T07:35:17;3.20;;;1.40;;
29814;SDS011;16708;50.426;7.664;2023-05-07T07:40:12;3.80;;;1.60;;
29814;SDS011;16708;50.426;7.664;2023-05-07T07:45:06;3.20;;;1.40;;
29814;SDS011;16708;50.426;7.664;2023-05-07T07:50:01;4.30;;;1.60;;
29814;SDS011;16708;50.426;7.664;2023-05-07T07:54:55;4.20;;;1.50;;
29814;SDS011;16708;50.426;7.664;2023-05-07T07:59:49;2.90;;;1.50;;
29814;SDS011;16708;50.426;7.664;2023-05-07T08:04:43;3.60;;;1.70;;
29814;SDS011;16708;50.426;7.664;2023-05-07T08:09:38;2.00;;;1.20;;
29814;SDS011;16708;50.426;7.664;2023-05-07T08:14:31;3.40;;;1.40;;
29814;SDS011;16708;50.426;7.664;2023-05-07T08:19:25;2.50;;;1.50;;
29814;SDS011;16708;50.426;7.664;2023-05-07T08:24:20;1.70;;;1.40;;
29814;SDS011;16708;50.426;7.664;2023-05-07T08:29:15;5.20;;;2.00;;
29814;SDS011;16708;50.426;7.664;2023-05-07T08:34:09;3.80;;;1.40;;
29814;SDS011;16708;50.426;7.664;2023-05-07T08:39:03;2.80;;;1.60;;
29814;SDS011;16708;50.426;7.664;2023-05-07T08:43:58;2.90;;;1.50;;
29814;SDS011;16708;50.426;7.664;2023-05-07T08:48:52;3.00;;;1.40;;
29814;SDS011;16708;50.426;7.664;2023-05-07T08:53:45;3.10;;;1.30;;
29814;SDS011;16708;50.426;7.664;2023-05-07T08:58:39;3.40;;;1.40;;
29814;SDS011;16708;50.426;7.664;2023-05-07T09:03:33;3.30;;;1.50;;
29814;SDS011;16708;50.426;7.664;2023-05-07T09:08:29;3.20;;;1.50;;
29814;SDS011;16708;50.426;7.664;2023-05-07T09:13:20;3.70;;;1.70;;
29814;SDS011;16708;50.426;7.664;2023-05-07T09:18:15;1.80;;;1.40;;
29814;SDS011;16708;50.426;7.664;2023-05-07T09:23:10;2.40;;;1.40;;
29814;SDS011;16708;50.426;7.664;2023-05-07T09:28:04;4.60;;;1.70;;
29814;SDS011;16708;50.426;7.664;2023-05-07T09:32:59;2.60;;;1.50;;
29814;SDS011;16708;50.426;7.664;2023-05-07T09:37:53;4.00;;;1.40;;
29814;SDS011;16708;50.426;7.664;2023-05-07T09:42:47;3.40;;;1.40;;
29814;SDS011;16708;50.426;7.664;2023-05-07T09:47:42;3.20;;;1.40;;
29814;SDS011;16708;50.426;7.664;2023-05-07T09:52:36;2.00;;;1.40;;
29814;SDS011;16708;50.426;7.664;2023-05-07T09:57:32;1.70;;;1.60;;
29814;SDS011;16708;50.426;7.664;2023-05-07T10:02:28;2.40;;;1.50;;
29814;SDS011;16708;50.426;7.664;2023-05-07T10:07:23;2.10;;;1.70;;
29814;SDS011;16708;50.426;7.664;2023-05-07T10:12:16;2.50;;;1.60;;
29814;SDS011;16708;50.426;7.664;2023-05-07T10:17:12;3.30;;;1.60;;
29814;SDS011;16708;50.426;7.664;2023-05-07T10:22:06;1.80;;;1.50;;
29814;SDS011;16708;50.426;7.664;2023-05-07T10:27:02;2.70;;;1.80;;
29814;SDS011;16708;50.426;7.664;2023-05-07T10:31:55;4.30;;;1.70;;
29814;SDS011;16708;50.426;7.664;2023-05-07T10:36:50;1.80;;;1.50;;
29814;SDS011;16708;50.426;7.664;2023-05-07T10:56:24;2.00;;;1.60;;
29814;SDS011;16708;50.426;7.664;2023-05-07T11:06:14;2.50;;;1.50;;
29814;SDS011;16708;50.426;7.664;2023-05-07T11:11:08;2.50;;;1.50;;
29814;SDS011;16708;50.426;7.664;2023-05-07T11:16:02;2.60;;;1.60;;
29814;SDS011;16708;50.426;7.664;2023-05-07T11:20:56;2.70;;;1.70;;
29814;SDS011;16708;50.426;7.664;2023-05-07T11:25:49;3.20;;;1.70;;
29814;SDS011;16708;50.426;7.664;2023-05-07T11:30:40;3.00;;;2.00;;
29814;SDS011;16708;50.426;7.664;2023-05-07T11:40:33;2.70;;;1.80;;
29814;SDS011;16708;50.426;7.664;2023-05-07T11:45:26;1.90;;;1.80;;
29814;SDS011;16708;50.426;7.664;2023-05-07T11:50:20;2.30;;;1.20;;
29814;SDS011;16708;50.426;7.664;2023-05-07T11:55:14;2.70;;;1.60;;
29814;SDS011;16708;50.426;7.664;2023-05-07T12:00:06;2.30;;;1.30;;
29814;SDS011;16708;50.426;7.664;2023-05-07T12:05:01;2.10;;;1.30;;
29814;SDS011;16708;50.426;7.664;2023-05-07T12:14:51;3.40;;;1.80;;
29814;SDS011;16708;50.426;7.664;2023-05-07T12:19:44;2.70;;;2.00;;
29814;SDS011;16708;50.426;7.664;2023-05-07T12:24:38;3.30;;;2.60;;
29814;SDS011;16708;50.426;7.664;2023-05-07T12:29:32;1.50;;;1.40;;
29814;SDS011;16708;50.426;7.664;2023-05-07T12:34:26;3.70;;;1.60;;
29814;SDS011;16708;50.426;7.664;2023-05-07T12:49:06;3.20;;;1.70;;
29814;SDS011;16708;50.426;7.664;2023-05-07T12:58:53;3.70;;;2.20;;
29814;SDS011;16708;50.426;7.664;2023-05-07T13:03:47;4.20;;;2.10;;
29814;SDS011;16708;50.426;7.664;2023-05-07T13:08:41;3.20;;;2.30;;
29814;SDS011;16708;50.426;7.664;2023-05-07T13:13:34;4.50;;;2.80;;
29814;SDS011;16708;50.426;7.664;2023-05-07T13:18:29;2.70;;;2.30;;
29814;SDS011;16708;50.426;7.664;2023-05-07T13:23:24;5.20;;;2.30;;
29814;SDS011;16708;50.426;7.664;2023-05-07T13:28:19;3.30;;;2.20;;
29814;SDS011;16708;50.426;7.664;2023-05-07T13:33:14;3.50;;;2.10;;
29814;SDS011;16708;50.426;7.664;2023-05-07T13:38:08;4.50;;;3.30;;
29814;SDS011;16708;50.426;7.664;2023-05-07T13:43:02;4.00;;;2.30;;
29814;SDS011;16708;50.426;7.664;2023-05-07T13:47:56;4.20;;;2.70;;
29814;SDS011;16708;50.426;7.664;2023-05-07T13:52:51;5.20;;;2.80;;
29814;SDS011;16708;50.426;7.664;2023-05-07T13:57:46;6.00;;;2.60;;
29814;SDS011;16708;50.426;7.664;2023-05-07T14:02:40;4.50;;;2.80;;
29814;SDS011;16708;50.426;7.664;2023-05-07T14:07:35;4.70;;;2.80;;
29814;SDS011;16708;50.426;7.664;2023-05-07T14:12:29;3.70;;;2.60;;
29814;SDS011;16708;50.426;7.664;2023-05-07T14:17:24;3.60;;;2.50;;
29814;SDS011;16708;50.426;7.664;2023-05-07T14:22:19;3.50;;;2.50;;
29814;SDS011;16708;50.426;7.664;2023-05-07T14:27:14;5.10;;;2.90;;
29814;SDS011;16708;50.426;7.664;2023-05-07T14:32:08;5.20;;;2.90;;
29814;SDS011;16708;50.426;7.664;2023-05-07T14:37:03;3.60;;;2.70;;
29814;SDS011;16708;50.426;7.664;2023-05-07T14:41:58;3.80;;;3.10;;
29814;SDS011;16708;50.426;7.664;2023-05-07T14:46:53;5.20;;;3.30;;
29814;SDS011;16708;50.426;7.664;2023-05-07T14:51:45;3.00;;;2.70;;
29814;SDS011;16708;50.426;7.664;2023-05-07T14:56:39;3.70;;;2.70;;
29814;SDS011;16708;50.426;7.664;2023-05-07T15:01:33;3.50;;;2.80;;
29814;SDS011;16708;50.426;7.664;2023-05-07T15:06:28;4.00;;;3.10;;
29814;SDS011;16708;50.426;7.664;2023-05-07T15:11:22;5.40;;;3.00;;
29814;SDS011;16708;50.426;7.664;2023-05-07T15:16:17;4.40;;;3.00;;
29814;SDS011;16708;50.426;7.664;2023-05-07T15:21:12;3.80;;;2.80;;
29814;SDS011;16708;50.426;7.664;2023-05-07T15:26:06;5.30;;;3.20;;
29814;SDS011;16708;50.426;7.664;2023-05-07T15:31:00;4.50;;;3.10;;
29814;SDS011;16708;50.426;7.664;2023-05-07T15:35:53;3.60;;;2.80;;
29814;SDS011;16708;50.426;7.664;2023-05-07T15:40:48;3.10;;;2.80;;
29814;SDS011;16708;50.426;7.664;2023-05-07T15:45:42;5.00;;;3.00;;
29814;SDS011;16708;50.426;7.664;2023-05-07T15:50:36;3.90;;;3.10;;
29814;SDS011;16708;50.426;7.664;2023-05-07T15:55:30;4.20;;;3.00;;
29814;SDS011;16708;50.426;7.664;2023-05-07T16:00:24;6.00;;;3.10;;
29814;SDS011;16708;50.426;7.664;2023-05-07T16:05:16;6.50;;;3.40;;
29814;SDS011;16708;50.426;7.664;2023-05-07T16:10:11;5.10;;;3.30;;
29814;SDS011;16708;50.426;7.664;2023-05-07T16:15:05;8.60;;;4.10;;
29814;SDS011;16708;50.426;7.664;2023-05-07T16:19:59;8.00;;;4.80;;
29814;SDS011;16708;50.426;7.664;2023-05-07T16:24:53;9.10;;;3.90;;
29814;SDS011;16708;50.426;7.664;2023-05-07T16:29:47;4.80;;;3.60;;
29814;SDS011;16708;50.426;7.664;2023-05-07T16:34:41;9.70;;;4.80;;
29814;SDS011;16708;50.426;7.664;2023-05-07T16:39:35;10.70;;;5.40;;
29814;SDS011;16708;50.426;7.664;2023-05-07T16:44:29;15.00;;;8.70;;
29814;SDS011;16708;50.426;7.664;2023-05-07T16:49:23;10.10;;;5.50;;
29814;SDS011;16708;50.426;7.664;2023-05-07T16:54:17;9.70;;;6.40;;
29814;SDS011;16708;50.426;7.664;2023-05-07T16:59:12;7.90;;;5.50;;
29814;SDS011;16708;50.426;7.664;2023-05-07T17:04:06;8.10;;;5.20;;
29814;SDS011;16708;50.426;7.664;2023-05-07T17:09:00;7.20;;;5.20;;
29814;SDS011;16708;50.426;7.664;2023-05-07T17:13:52;4.20;;;3.10;;
29814;SDS011;16708;50.426;7.664;2023-05-07T17:18:46;6.70;;;3.10;;
29814;SDS011;16708;50.426;7.664;2023-05-07T17:23:38;5.90;;;2.80;;
29814;SDS011;16708;50.426;7.664;2023-05-07T17:28:31;6.00;;;3.10;;
29814;SDS011;16708;50.426;7.664;2023-05-07T17:33:25;4.40;;;2.80;;
29814;SDS011;16708;50.426;7.664;2023-05-07T17:38:20;4.10;;;2.10;;
29814;SDS011;16708;50.426;7.664;2023-05-07T17:43:14;4.20;;;1.50;;
29814;SDS011;16708;50.426;7.664;2023-05-07T17:48:08;2.90;;;1.60;;
29814;SDS011;16708;50.426;7.664;2023-05-07T17:53:03;4.20;;;1.80;;
29814;SDS011;16708;50.426;7.664;2023-05-07T17:57:58;6.70;;;2.30;;
29814;SDS011;16708;50.426;7.664;2023-05-07T18:02:51;8.10;;;2.90;;
29814;SDS011;16708;50.426;7.664;2023-05-07T18:07:43;8.50;;;3.00;;
29814;SDS011;16708;50.426;7.664;2023-05-07T18:12:36;8.20;;;3.00;;
29814;SDS011;16708;50.426;7.664;2023-05-07T18:17:30;9.70;;;4.20;;
29814;SDS011;16708;50.426;7.664;2023-05-07T18:22:25;7.80;;;4.30;;
29814;SDS011;16708;50.426;7.664;2023-05-07T18:27:19;9.80;;;4.50;;
29814;SDS011;16708;50.426;7.664;2023-05-07T18:32:13;17.70;;;7.50;;
29814;SDS011;16708;50.426;7.664;2023-05-07T18:37:08;14.40;;;7.60;;
29814;SDS011;16708;50.426;7.664;2023-05-07T18:42:02;17.80;;;6.30;;
29814;SDS011;16708;50.426;7.664;2023-05-07T18:46:57;15.70;;;6.30;;
29814;SDS011;16708;50.426;7.664;2023-05-07T18:51:51;14.80;;;5.40;;
29814;SDS011;16708;50.426;7.664;2023-05-07T18:56:45;10.80;;;5.00;;
29814;SDS011;16708;50.426;7.664;2023-05-07T19:01:39;10.30;;;5.60;;
29814;SDS011;16708;50.426;7.664;2023-05-07T19:06:32;12.00;;;6.60;;
29814;SDS011;16708;50.426;7.664;2023-05-07T19:11:24;12.90;;;7.30;;
29814;SDS011;16708;50.426;7.664;2023-05-07T19:16:20;13.40;;;7.00;;
29814;SDS011;16708;50.426;7.664;2023-05-07T19:21:13;12.20;;;7.10;;
29814;SDS011;16708;50.426;7.664;2023-05-07T19:26:07;11.40;;;6.20;;
29814;SDS011;16708;50.426;7.664;2023-05-07T19:31:00;12.00;;;6.00;;
29814;SDS011;16708;50.426;7.664;2023-05-07T19:35:54;12.90;;;7.10;;
29814;SDS011;16708;50.426;7.664;2023-05-07T19:40:48;10.70;;;6.40;;
29814;SDS011;16708;50.426;7.664;2023-05-07T19:45:44;7.70;;;4.80;;
29814;SDS011;16708;50.426;7.664;2023-05-07T19:50:35;12.20;;;5.20;;
29814;SDS011;16708;50.426;7.664;2023-05-07T19:55:30;7.60;;;5.00;;
29814;SDS011;16708;50.426;7.664;2023-05-07T20:00:21;12.90;;;6.20;;
29814;SDS011;16708;50.426;7.664;2023-05-07T20:05:15;8.20;;;5.10;;
29814;SDS011;16708;50.426;7.664;2023-05-07T20:10:09;11.10;;;6.00;;
29814;SDS011;16708;50.426;7.664;2023-05-07T20:15:04;10.80;;;5.50;;
29814;SDS011;16708;50.426;7.664;2023-05-07T20:19:58;9.90;;;5.30;;
29814;SDS011;16708;50.426;7.664;2023-05-07T20:24:52;8.90;;;4.90;;
29814;SDS011;16708;50.426;7.664;2023-05-07T20:29:47;7.80;;;4.40;;
29814;SDS011;16708;50.426;7.664;2023-05-07T20:34:40;8.60;;;4.30;;
29814;SDS011;16708;50.426;7.664;2023-05-07T20:39:35;8.70;;;4.30;;
29814;SDS011;16708;50.426;7.664;2023-05-07T20:44:30;6.80;;;4.10;;
29814;SDS011;16708;50.426;7.664;2023-05-07T20:49:24;6.90;;;4.00;;
29814;SDS011;16708;50.426;7.664;2023-05-07T20:54:19;7.60;;;4.00;;
29814;SDS011;16708;50.426;7.664;2023-05-07T20:59:13;6.20;;;4.00;;
29814;SDS011;16708;50.426;7.664;2023-05-07T21:04:08;5.80;;;3.50;;
29814;SDS011;16708;50.426;7.664;2023-05-07T21:09:02;8.10;;;3.90;;
29814;SDS011;16708;50.426;7.664;2023-05-07T21:13:57;5.90;;;3.90;;
29814;SDS011;16708;50.426;7.664;2023-05-07T21:18:52;7.40;;;4.00;;
29814;SDS011;16708;50.426;7.664;2023-05-07T21:23:46;7.70;;;4.90;;
29814;SDS011;16708;50.426;7.664;2023-05-07T21:28:38;8.10;;;5.20;;
29814;SDS011;16708;50.426;7.664;2023-05-07T21:33:33;9.70;;;4.80;;
29814;SDS011;16708;50.426;7.664;2023-05-07T21:38:27;6.60;;;4.80;;
29814;SDS011;16708;50.426;7.664;2023-05-07T21:48:15;10.30;;;5.70;;
29814;SDS011;16708;50.426;7.664;2023-05-07T21:53:09;10.30;;;6.30;;
29814;SDS011;16708;50.426;7.664;2023-05-07T21:58:04;11.10;;;6.60;;
29814;SDS011;16708;50.426;7.664;2023-05-07T22:02:58;13.00;;;7.40;;
29814;SDS011;16708;50.426;7.664;2023-05-07T22:07:53;24.30;;;11.50;;
29814;SDS011;16708;50.426;7.664;2023-05-07T22:12:47;13.70;;;6.50;;
29814;SDS011;16708;50.426;7.664;2023-05-07T22:17:41;10.60;;;6.40;;
29814;SDS011;16708;50.426;7.664;2023-05-07T22:22:35;10.70;;;6.50;;
29814;SDS011;16708;50.426;7.664;2023-05-07T22:27:30;8.30;;;5.80;;
29814;SDS011;16708;50.426;7.664;2023-05-07T22:32:22;9.00;;;6.00;;
29814;SDS011;16708;50.426;7.664;2023-05-07T22:37:17;9.20;;;6.10;;
29814;SDS011;16708;50.426;7.664;2023-05-07T22:42:11;10.60;;;6.40;;
29814;SDS011;16708;50.426;7.664;2023-05-07T22:47:06;12.90;;;7.50;;
29814;SDS011;16708;50.426;7.664;2023-05-07T22:52:00;13.40;;;8.00;;
29814;SDS011;16708;50.426;7.664;2023-05-07T22:56:55;13.20;;;7.90;;
29814;SDS011;16708;50.426;7.664;2023-05-07T23:01:49;12.10;;;7.50;;
29814;SDS011;16708;50.426;7.664;2023-05-07T23:06:43;13.10;;;7.70;;
29814;SDS011;16708;50.426;7.664;2023-05-07T23:11:37;12.90;;;7.50;;
29814;SDS011;16708;50.426;7.664;2023-05-07T23:16:31;12.00;;;7.30;;
29814;SDS011;16708;50.426;7.664;2023-05-07T23:21:26;12.00;;;7.40;;
29814;SDS011;16708;50.426;7.664;2023-05-07T23:26:19;12.60;;;7.90;;
29814;SDS011;16708;50.426;7.664;2023-05-07T23:31:13;15.60;;;8.40;;
29814;SDS011;16708;50.426;7.664;2023-05-07T23:36:07;17.20;;;9.60;;
29814;SDS011;16708;50.426;7.664;2023-05-07T23:41:01;18.00;;;10.80;;
29814;SDS011;16708;50.426;7.664;2023-05-07T23:45:56;21.00;;;11.50;;
29814;SDS011;16708;50.426;7.664;2023-05-07T23:50:51;20.20;;;11.10;;
29814;SDS011;16708;50.426;7.664;2023-05-07T23:55:44;19.80;;;11.70;;
